Tiempo atmosférico en la estación meteorológica de Becerreá, Lugo (1080 m.)



Fecha
DESCASC
Temp. máxima en grados centígrados (hora)
DESCASC
Temp. mínima en grados centígrados (hora)
DESCASC
Temp. media en grados centígrados
DESCASC
Racha de viento máxima en m/sg (hora)
DESCASC
Velocidad máxima media en intervalos de 10 minutos(hora)
DESCASC
Precipitaciones diarias en mm
DESCASC
Precipitaciones de 00:00 a 06:00 en mm
DESCASC
Precipitaciones de 06:00 a 12:00 en mm
DESCASC
Precipitaciones de 12:00 a 18:00 en mm
DESCASC
Precipitaciones de 18:00 a 24:00 en mm
DESCASC
21-02-2019 13.6 (15:10) 4.6 (07:10) 9.1 8.89 (17:00) 4.72 (17:00) 0 0 0 0 0
20-02-2019 11 (15:50) 2.5 (00:00) 6.8 6.67 (10:40) 3.89 (04:10) 0 0 0 0 0
19-02-2019 6.2 (13:20) -1.1 (08:20) 2.5 7.22 (11:30) 3.89 (20:00) 0 0 0 0 0
18-02-2019 4.6 (00:00) 0.5 (23:59) 2.5 5.28 (16:00) 2.5 (13:50) 9.6 0.6 5.8 3.2 0
17-02-2019 10.7 (12:10) 4.6 (00:00) 7.6 9.72 (12:40) 5.28 (00:40) 0.6 0 0 0 0.6
16-02-2019 16.4 (14:30) 7.5 (00:00) 11.9 10.83 (11:20) 5 (04:20) 0 0 0 0 0
15-02-2019 15.6 (12:50) 7.4 (00:00) 11.5 9.17 (00:50) 4.72 (00:50) 0 0 0 0 0
14-02-2019 14.5 (15:10) 6.6 (00:00) 10.5 11.94 (07:30) 7.5 (07:10) 0 0 0 0 0
13-02-2019 11.7 (16:20) 5.4 (00:00) 8.5 5.83 (23:50) 3.61 (23:59) 0 0 0 0 0
12-02-2019 12.3 (16:50) 2.5 (00:00) 7.4 4.72 (09:20) 3.61 (20:10) 0 0 0 0 0
11-02-2019 7.7 (17:20) -0.8 (-00:0) 3.4 6.67 (19:20) 3.06 (01:20) 0.2 0 0.2 0 0
10-02-2019 6.8 (08:30) 0.3 (00:00) 3.6 19.72 (04:30) 6.94 (07:20) 14 4 10 0 0
09-02-2019 7.1 (13:00) 4.3 (00:00) 5.7 15.28 (20:10) 7.22 (23:59) 0.4 0 0 0 0.4
08-02-2019 6.5 (14:10) 1.3 (00:00) 3.9 12.22 (15:50) 6.67 (06:30) 0 0 0 0 0
07-02-2019 6.8 (16:50) 2.5 (00:00) 4.7 8.33 (01:20) 3.61 (04:40) 2.4 1 1.4 0 0
06-02-2019 10 (13:00) 4.4 (00:00) 7.2 8.89 (10:30) 5 (10:10) 0 0 0 0 0
05-02-2019 9.5 (17:00) 3.5 (00:00) 6.5 5 (13:30) 3.89 (23:59) 0 0 0 0 0
04-02-2019 4.5 (11:30) 0.3 (00:00) 2.4 9.72 (19:20) 6.39 (19:20) 7 0.4 3.4 3.2 0
03-02-2019 0.9 (17:10) -2.5 (-00:0) -0.8 5.56 (21:10) 3.61 (19:10) -- 0 3.2 -- 0.4
02-02-2019 -0.8 (14:40) -2.6 (-00:0) -1.7 10.83 (00:20) 5.28 (00:30) 2.4 0 0 2.4 0
01-02-2019 1.5 (00:00) -1.8 (-00:0) -0.1 16.11 (03:50) 8.61 (18:20) 2.6 2.4 0.2 0 0
31-01-2019 7.9 (14:20) 1.5 (00:00) 4.7 18.61 (15:50) 7.78 (16:50) 60.4 28.2 14.6 16 1.6
30-01-2019 7.3 (23:20) -0.5 (-00:0) 3.4 17.22 (18:20) 5.83 (18:20) 29 0 0.8 7.6 20.6
29-01-2019 5.1 (13:10) -0.2 (00:00) 2.4 16.39 (13:40) 8.33 (13:20) 22 1.8 10.6 8.8 0.8
28-01-2019 4.2 (15:50) 1.5 (00:00) 2.8 12.78 (09:00) 5.83 (14:00) 14.2 6.6 7.4 0.2 0
27-01-2019 3.6 (00:10) 0.6 (00:00) 2.1 12.78 (04:10) 6.67 (06:10) 12.2 7 2.6 1.6 1
26-01-2019 11.1 (14:50) 2 (00:00) 6.6 9.17 (22:50) 4.17 (22:50) 0 0 0 0 0
25-01-2019 6 (13:40) 2.3 (00:00) 4.1 8.89 (11:20) 4.17 (06:40) -- -- 0 0 0
24-01-2019 6.5 (15:00) 4.7 (00:00) 5.6 13.06 (04:30) 5.83 (00:30) 3 1.2 1 0.8 0

Gráficas

Temp. máximas Temp. mínimas Temp. medias Precipitaciones Rachas de viento máximas Velocidades máximas media en intervalos de 10 minutos

Datos horarios

Fecha y hora oficial Temperatura (ºC) Velocidad del viento (km/h) Dirección del viento Racha (km/h) Dirección de racha Precipitación (mm) Presión (hPa) Tendencia (hPa) Humedad (%)
2019-02-22 23:00:00 10.8 9 Sur 22 Sur 0 -- -- 42
2019-02-22 22:00:00 11.1 12 Sur 28 Sur 0 -- -- 42
2019-02-22 21:00:00 11.9 17 Sur 30 Sur 0 -- -- 39
2019-02-22 20:00:00 12 13 Sudoeste 23 Sur 0 -- -- 37
2019-02-22 19:00:00 12.9 12 Sur 20 Sur 0 -- -- 35
2019-02-22 18:00:00 14.1 6 Sur 18 Sudeste 0 -- -- 32
2019-02-22 17:00:00 15.1 4 Este 20 Este 0 -- -- 39
2019-02-22 16:00:00 15.1 6 Este 22 Este 0 -- -- 40
2019-02-22 15:00:00 15 9 Este 22 Este 0 -- -- 40
2019-02-22 14:00:00 15.3 5 Este 25 Este 0 -- -- 42
2019-02-22 13:00:00 14.6 9 Este 36 Este 0 -- -- 44
2019-02-22 12:00:00 13.1 13 Este 48 Sudeste 0 -- -- 47
2019-02-22 11:00:00 11.2 19 Sudeste 44 Sudeste 0 -- -- 47
2019-02-22 10:00:00 9.7 19 Sudeste 44 Sudeste 0 -- -- 51
2019-02-22 09:00:00 8.3 15 Este 31 Sudeste 0 -- -- 54
2019-02-22 08:00:00 7.5 18 Sudeste 34 Este 0 -- -- 56
2019-02-22 07:00:00 7.4 20 Sudeste 42 Sudeste 0 -- -- 57
2019-02-22 06:00:00 7.5 21 Sudeste 40 Este 0 -- -- 58
2019-02-22 05:00:00 7.7 15 Sudeste 34 Sudeste 0 -- -- 58
2019-02-22 04:00:00 7.6 12 Este 26 Sudeste 0 -- -- 59
2019-02-22 03:00:00 8.2 13 Sudeste 26 Este 0 -- -- 59
2019-02-22 02:00:00 8.1 12 Este 24 Este 0 -- -- 61
2019-02-22 01:00:00 8.6 12 Sudeste 25 Sudeste 0 -- -- 58
2019-02-22 00:00:00 8.5 10 Sudeste 21 Sudeste 0 -- -- 59
2019-02-21 23:00:00 9.2 7 Este 18 Sudeste 0 -- -- 56
2019-02-21 22:00:00 9.9 10 Sur 21 Sudeste 0 -- -- 53
2019-02-21 21:00:00 9.9 8 Sudeste 19 Sudeste 0 -- -- 56
2019-02-21 20:00:00 10.6 10 Sur 25 Sur 0 -- -- 53
2019-02-21 19:00:00 10.8 5 Sur 21 Sur 0 -- -- 48
2019-02-21 18:00:00 11.5 10 Sur 25 Sudoeste 0 -- -- 44
2019-02-21 17:00:00 12.1 17 Sur 32 Sur 0 -- -- 41
2019-02-21 16:00:00 12.6 13 Sudeste 28 Sudeste 0 -- -- 46
2019-02-21 15:00:00 13.5 6 Este 20 Este 0 -- -- 56
2019-02-21 14:00:00 13.4 7 Este 26 Este 0 -- -- 58
2019-02-21 13:00:00 12.3 6 Este 31 Sudeste 0 -- -- 58
2019-02-21 12:00:00 11.6 6 Este 31 Sudeste 0 -- -- 61
2019-02-21 11:00:00 9 6 Este 23 Sudeste 0 -- -- 69
2019-02-21 10:00:00 7 8 Este 27 Este 0 -- -- 76
2019-02-21 09:00:00 4.9 10 Sudeste 24 Este 0 -- -- 79
2019-02-21 08:00:00 4.9 13 Sudeste 23 Sudeste 0 -- -- 77
2019-02-21 07:00:00 4.8 13 Sudeste 26 Sudeste 0 -- -- 78
2019-02-21 06:00:00 4.9 14 Sudeste 22 Sudeste 0 -- -- 77
2019-02-21 05:00:00 5.1 13 Sudeste 30 Sudeste 0 -- -- 77
2019-02-21 04:00:00 5.3 13 Sudeste 25 Sudeste 0 -- -- 78
2019-02-21 03:00:00 5.5 13 Sudeste 21 Sudeste 0 -- -- 80
2019-02-21 02:00:00 5.2 9 Sudeste 18 Sudeste 0 -- -- 83
2019-02-21 01:00:00 5.9 8 Sudeste 17 Sudeste 0 -- -- 78
2019-02-21 00:00:00 6.1 10 Sudeste 16 Sudeste 0 -- -- 75
2019-02-20 23:00:00 6.5 10 Sudeste 16 Sudeste 0 -- -- 71
2019-02-20 22:00:00 6.8 9 Sur 18 Sur 0 -- -- 69
2019-02-20 21:00:00 7.2 10 Sur 17 Sur 0 -- -- 64
2019-02-20 20:00:00 7.7 10 Sur 18 Sudoeste 0 -- -- 51
2019-02-20 19:00:00 8.9 8 Sudoeste 15 Oeste 0 -- -- 53
2019-02-20 18:00:00 10.4 4 Sur 14 Oeste 0 -- -- 56
2019-02-20 17:00:00 10.4 6 Sur 17 Sur 0 -- -- 51
2019-02-20 16:00:00 10.9 4 Este 14 Sudeste 0 -- -- 49
2019-02-20 15:00:00 10.2 3 Este 12 Sudoeste 0 -- -- 53
2019-02-20 14:00:00 10 3 Sudeste 9 Oeste 0 -- -- 56
2019-02-20 13:00:00 10.1 4 Este 19 Este 0 -- -- 53
2019-02-20 12:00:00 8.8 6 Este 23 Sudeste 0 -- -- 63
2019-02-20 11:00:00 6.9 8 Este 24 Sudeste 0 -- -- 68
2019-02-20 10:00:00 5.8 11 Sudeste 23 Sudeste 0 -- -- 71
2019-02-20 09:00:00 3.5 13 Sudeste 21 Sudeste 0 -- -- 74
2019-02-20 08:00:00 2.7 11 Sudeste 16 Sudeste 0 -- -- 78
2019-02-20 07:00:00 2.7 12 Sudeste 18 Sur 0 -- -- 79
2019-02-20 06:00:00 2.8 11 Sudeste 17 Sur 0 -- -- 76
2019-02-20 05:00:00 2.7 11 Sudeste 19 Sudeste 0 -- -- 74
2019-02-20 04:00:00 2.7 13 Sudeste 21 Sudeste 0 -- -- 72
2019-02-20 03:00:00 2.9 12 Sudeste 19 Sudeste 0 -- -- 69
2019-02-20 02:00:00 3.2 12 Sur 19 Sur 0 -- -- 72
2019-02-20 01:00:00 2.9 11 Sudoeste 17 Sudoeste 0 -- -- 78
2019-02-20 00:00:00 2.5 12 Sudoeste 19 Sudoeste 0 -- -- 77
2019-02-19 23:00:00 3.3 12 Sudoeste 19 Sudoeste 0 -- -- 67
2019-02-19 22:00:00 3.6 10 Sudoeste 21 Sudoeste 0 -- -- 65
2019-02-19 21:00:00 3.7 13 Sudoeste 21 Sudoeste 0 -- -- 55
2019-02-19 20:00:00 3.9 14 Sudoeste 23 Sudoeste 0 -- -- 61
2019-02-19 19:00:00 4 9 Sudoeste 19 Sudoeste 0 -- -- 80
2019-02-19 18:00:00 5.3 13 Oeste 18 Oeste 0 -- -- 78
2019-02-19 17:00:00 6.2 8 Oeste 17 Oeste 0 -- -- 80
2019-02-19 16:00:00 5.6 12 Oeste 22 Noroeste 0 -- -- 85
2019-02-19 15:00:00 5.4 7 Oeste 12 Oeste 0 -- -- 88
2019-02-19 14:00:00 6.2 4 Este 12 Este 0 -- -- 84
2019-02-19 13:00:00 5.7 8 Sudeste 21 Sudeste 0 -- -- 90
2019-02-19 12:00:00 3.9 11 Sudeste 26 Sudeste 0 -- -- 99
2019-02-19 11:00:00 1.9 9 Sudeste 20 Sudeste 0 -- -- 100
2019-02-19 10:00:00 0.4 6 Sudeste 17 Este 0 -- -- 100
2019-02-19 09:00:00 -0.8 8 Este 18 Este 0 -- -- 100
2019-02-19 08:00:00 -0.9 8 Este 16 Este 0 -- -- 100
2019-02-19 07:00:00 -0.6 6 Este 14 Este 0 -- -- 100
2019-02-19 06:00:00 -0.5 6 Nordeste 15 Nordeste 0 -- -- 100
2019-02-19 05:00:00 -0.3 7 Nordeste 14 Nordeste 0 -- -- 100
2019-02-19 04:00:00 -0.6 5 Nordeste 13 Nordeste 0 -- -- 100
2019-02-19 03:00:00 -0.3 6 Nordeste 15 Nordeste 0 -- -- 100
2019-02-19 02:00:00 -0.2 6 Nordeste 11 Nordeste 0 -- -- 100
2019-02-19 01:00:00 0.3 5 Nordeste 13 Nordeste 0 -- -- 100
2019-02-19 00:00:00 0.5 7 Nordeste 12 Nordeste 0 -- -- 100
2019-02-18 23:00:00 0.6 5 Nordeste 10 Nordeste 0 -- -- 100
2019-02-18 22:00:00 1.1 5 Nordeste 13 Nordeste 0 -- -- 100
2019-02-18 21:00:00 1.2 5 Nordeste 13 Norte 0 -- -- 100
2019-02-18 20:00:00 1.5 4 Nordeste 9 Nordeste 0 -- -- 100
2019-02-18 19:00:00 1.9 4 Nordeste 11 Nordeste 0 -- -- 100
2019-02-18 18:00:00 2 5 Nordeste 10 Nordeste 0.2 -- -- 100
2019-02-18 17:00:00 1.7 4 Norte 17 Noroeste 0.4 -- -- 100
2019-02-18 16:00:00 1.9 9 Noroeste 19 Noroeste 0.8 -- -- 100
2019-02-18 15:00:00 2.6 6 Noroeste 13 Oeste 0.2 -- -- 100
2019-02-18 14:00:00 2.4 9 Noroeste 16 Noroeste 0.6 -- -- 100
2019-02-18 13:00:00 2.7 5 Noroeste 12 Noroeste 1 -- -- 100
2019-02-18 12:00:00 2.9 5 Noroeste 13 Norte 0.8 -- -- 100
2019-02-18 11:00:00 2.9 5 Noroeste 13 Noroeste 0.8 -- -- 100
2019-02-18 10:00:00 3 2 Noroeste 9 Norte 1 -- -- 100
2019-02-18 09:00:00 3.2 3 Noroeste 6 Norte 1.6 -- -- 100
2019-02-18 08:00:00 3.5 3 Nordeste 9 Nordeste 1.4 -- -- 100
2019-02-18 07:00:00 3.5 4 Este 13 Este 0.2 -- -- 100
2019-02-18 06:00:00 3.7 4 Nordeste 11 Nordeste 0 -- -- 100
2019-02-18 05:00:00 3.8 4 Este 9 Nordeste 0 -- -- 100
2019-02-18 04:00:00 3.4 6 Norte 12 Norte 0.4 -- -- 100
2019-02-18 03:00:00 4 4 Oeste 10 Noroeste 0 -- -- 100
2019-02-18 02:00:00 3.9 3 Noroeste 8 Noroeste 0 -- -- 100
2019-02-18 01:00:00 4.3 4 Noroeste 12 Oeste 0.2 -- -- 100
2019-02-18 00:00:00 4.6 7 Oeste 19 Sudoeste 0.2 -- -- 99
2019-02-17 23:00:00 4.9 13 Oeste 23 Sudoeste 0.2 -- -- 98
2019-02-17 22:00:00 5.3 12 Oeste 27 Oeste 0.2 -- -- 94
2019-02-17 21:00:00 6.8 8 Oeste 25 Oeste 0 -- -- 82
2019-02-17 20:00:00 7.1 14 Sudoeste 24 Sudoeste 0 -- -- 79
2019-02-17 19:00:00 7.5 14 Oeste 24 Oeste 0 -- -- 76
2019-02-17 18:00:00 8.7 12 Oeste 24 Oeste 0 -- -- 70
2019-02-17 17:00:00 10.2 7 Sur 30 Sur 0 -- -- 57
2019-02-17 16:00:00 10.1 11 Sur 28 Sur 0 -- -- 58
2019-02-17 15:00:00 10.3 12 Sur 28 Sudoeste 0 -- -- 56
2019-02-17 14:00:00 10.5 12 Sur 30 Sudoeste 0 -- -- 53
2019-02-17 13:00:00 10 16 Sur 35 Sudoeste 0 -- -- 53
2019-02-17 12:00:00 10.2 8 Sur 26 Sudoeste 0 -- -- 55
2019-02-17 11:00:00 8.7 14 Sur 28 Sur 0 -- -- 55
2019-02-17 10:00:00 7.6 11 Sur 24 Sur 0 -- -- 62
2019-02-17 09:00:00 7.7 11 Sur 30 Sur 0 -- -- 62
2019-02-17 08:00:00 7.8 13 Sur 30 Sudoeste 0 -- -- 65
2019-02-17 07:00:00 7.8 17 Sur 30 Sur 0 -- -- 66
2019-02-17 06:00:00 7.8 13 Sur 32 Sur 0 -- -- 65
2019-02-17 05:00:00 8.2 17 Sur 30 Sur 0 -- -- 62
2019-02-17 04:00:00 8.4 13 Sur 33 Sur 0 -- -- 58
2019-02-17 03:00:00 8.4 16 Sur 31 Sur 0 -- -- 62
2019-02-17 02:00:00 8.3 10 Sur 28 Sur 0 -- -- 61
2019-02-17 01:00:00 8.4 18 Sur 32 Sudoeste 0 -- -- 60
2019-02-17 00:00:00 8.7 13 Sudoeste 27 Sudoeste 0 -- -- 61
2019-02-16 23:00:00 9.3 13 Sudoeste 22 Sudoeste 0 -- -- 56
2019-02-16 22:00:00 10.7 13 Sur 27 Sur 0 -- -- 48
2019-02-16 21:00:00 11.4 17 Sudoeste 28 Sur 0 -- -- 43
2019-02-16 20:00:00 11.6 10 Sudoeste 22 Oeste 0 -- -- 44
2019-02-16 19:00:00 12.6 12 Sudoeste 19 Sudoeste 0 -- -- 42
2019-02-16 18:00:00 14.5 12 Oeste 23 Oeste 0 -- -- 39
2019-02-16 17:00:00 15.1 11 Oeste 21 Oeste 0 -- -- 43
2019-02-16 16:00:00 15.8 3 Este 15 Este 0 -- -- 36
2019-02-16 15:00:00 16.3 7 Este 21 Sudeste 0 -- -- 32
2019-02-16 14:00:00 15.9 9 Este 26 Este 0 -- -- 36
2019-02-16 13:00:00 15.3 9 Este 27 Este 0 -- -- 36
2019-02-16 12:00:00 13.9 10 Sudeste 39 Sudeste 0 -- -- 38
2019-02-16 11:00:00 12.9 12 Este 28 Sudeste 0 -- -- 41
2019-02-16 10:00:00 11.1 13 Sudeste 31 Sudeste 0 -- -- 46
2019-02-16 09:00:00 10.1 15 Sudeste 33 Sudeste 0 -- -- 48
2019-02-16 08:00:00 9.8 14 Sudeste 26 Sudeste 0 -- -- 49
2019-02-16 07:00:00 10 13 Sudeste 34 Sudeste 0 -- -- 48
2019-02-16 06:00:00 10.1 18 Sudeste 31 Sudeste 0 -- -- 47
2019-02-16 05:00:00 10.3 15 Sudeste 28 Sudeste 0 -- -- 48
2019-02-16 04:00:00 10.3 15 Sudeste 25 Sudeste 0 -- -- 48
2019-02-16 03:00:00 9.4 11 Sudeste 14 Sudeste 0 -- -- 47
2019-02-16 02:00:00 7.8 5 Este 12 Este 0 -- -- 55
2019-02-16 01:00:00 8.6 6 Este 15 Nordeste 0 -- -- 53
2019-02-16 00:00:00 8.1 5 Este 9 Nordeste 0 -- -- 56
2019-02-15 23:00:00 8.2 4 Este 10 Nordeste 0 -- -- 57
2019-02-15 22:00:00 8.4 4 Nordeste 13 Nordeste 0 -- -- 54
2019-02-15 21:00:00 7.6 5 Este 7 Este 0 -- -- 65
2019-02-15 20:00:00 9.4 3 Nordeste 6 Nordeste 0 -- -- 55
2019-02-15 19:00:00 10.7 5 Noroeste 14 Oeste 0 -- -- 55
2019-02-15 18:00:00 12.2 10 Oeste 17 Oeste 0 -- -- 50
2019-02-15 17:00:00 13.4 9 Oeste 15 Oeste 0 -- -- 47
2019-02-15 16:00:00 13 9 Oeste 16 Oeste 0 -- -- 49
2019-02-15 15:00:00 13.2 9 Oeste 18 Oeste 0 -- -- 51
2019-02-15 14:00:00 14.9 3 Noroeste 12 Oeste 0 -- -- 46
2019-02-15 13:00:00 15.6 4 Este 13 Sudeste 0 -- -- 42
2019-02-15 12:00:00 14.5 5 Este 14 Este 0 -- -- 45
2019-02-15 11:00:00 12.7 6 Este 19 Sur 0 -- -- 44
2019-02-15 10:00:00 11.6 12 Sudeste 22 Sudeste 0 -- -- 39
2019-02-15 09:00:00 10.4 10 Sudeste 20 Sudeste 0 -- -- 37
2019-02-15 08:00:00 8.8 13 Sudeste 21 Sudeste 0 -- -- 42
2019-02-15 07:00:00 9.1 14 Sudeste 21 Sudeste 0 -- -- 41
2019-02-15 06:00:00 8.5 12 Sudeste 24 Sudeste 0 -- -- 45
2019-02-15 05:00:00 8 13 Sudeste 27 Sudeste 0 -- -- 47
2019-02-15 04:00:00 8.4 14 Sudeste 27 Sudeste 0 -- -- 46
2019-02-15 03:00:00 8.9 15 Sudeste 29 Sudeste 0 -- -- 44
2019-02-15 02:00:00 8.5 7 Sudeste 26 Este 0 -- -- 50
2019-02-15 01:00:00 9.5 13 Sudeste 33 Este 0 -- -- 48
2019-02-15 00:00:00 9.6 17 Sudeste 34 Sur 0 -- -- 48
2019-02-14 23:00:00 9 12 Sudeste 29 Sudeste 0 -- -- 50
2019-02-14 22:00:00 9.6 16 Sudeste 32 Sudeste 0 -- -- 51
2019-02-14 21:00:00 10 12 Sudeste 30 Sudeste 0 -- -- 52
2019-02-14 20:00:00 11 10 Sudeste 30 Sudeste 0 -- -- 49
2019-02-14 19:00:00 11.6 10 Sudeste 23 Este 0 -- -- 45
2019-02-14 18:00:00 13.2 6 Este 22 Este 0 -- -- 42
2019-02-14 17:00:00 13.8 10 Este 30 Este 0 -- -- 41
2019-02-14 16:00:00 14.2 5 Este 22 Este 0 -- -- 43
2019-02-14 15:00:00 14.4 4 Sudeste 30 Este 0 -- -- 41
2019-02-14 14:00:00 14 9 Sudeste 29 Este 0 -- -- 41
2019-02-14 13:00:00 13.2 10 Este 39 Sudeste 0 -- -- 44
2019-02-14 12:00:00 11.7 18 Este 42 Sudeste 0 -- -- 42
2019-02-14 11:00:00 9.9 16 Sudeste 35 Sudeste 0 -- -- 45
2019-02-14 10:00:00 8.6 15 Sudeste 37 Sudeste 0 -- -- 48
2019-02-14 09:00:00 7.1 23 Sudeste 39 Sudeste 0 -- -- 48
2019-02-14 08:00:00 7 22 Sudeste 43 Sudeste 0 -- -- 47
2019-02-14 07:00:00 7.3 24 Sudeste 39 Sudeste 0 -- -- 46
2019-02-14 06:00:00 7.2 17 Sudeste 29 Sudeste 0 -- -- 47
2019-02-14 05:00:00 7.6 17 Sudeste 33 Sudeste 0 -- -- 46
2019-02-14 04:00:00 7.8 17 Sudeste 35 Sudeste 0 -- -- 47
2019-02-14 03:00:00 8.1 18 Sudeste 34 Sudeste 0 -- -- 48
2019-02-14 02:00:00 8.1 16 Sudeste 27 Sudeste 0 -- -- 48
2019-02-14 01:00:00 8.1 14 Sur 27 Sur 0 -- -- 48
2019-02-14 00:00:00 8.2 13 Sur 21 Sur 0 -- -- 46
2019-02-13 23:00:00 7.8 9 Sudeste 13 Sudeste 0 -- -- 53
2019-02-13 22:00:00 7.1 6 Sudeste 8 Sudeste 0 -- -- 55
2019-02-13 21:00:00 6 4 Sudeste 6 Sur 0 -- -- 61
2019-02-13 20:00:00 6.9 5 Sudoeste 9 Oeste 0 -- -- 56
2019-02-13 19:00:00 8.8 9 Oeste 13 Oeste 0 -- -- 52
2019-02-13 18:00:00 11.1 9 Oeste 15 Oeste 0 -- -- 47
2019-02-13 17:00:00 11.5 11 Oeste 18 Sudoeste 0 -- -- 47
2019-02-13 16:00:00 11.3 8 Oeste 18 Sudoeste 0 -- -- 47
2019-02-13 15:00:00 11 8 Oeste 13 Oeste 0 -- -- 46
2019-02-13 14:00:00 10.4 7 Oeste 16 Oeste 0 -- -- 46
2019-02-13 13:00:00 10.9 5 Oeste 12 Oeste 0 -- -- 45
2019-02-13 12:00:00 10.3 4 Sudoeste 8 Sudoeste 0 -- -- 38
2019-02-13 11:00:00 9.9 3 Este 13 Este 0 -- -- 37
2019-02-13 10:00:00 8.2 5 Este 10 Este 0 -- -- 30
2019-02-13 09:00:00 5.9 4 Sudeste 12 Sudeste 0 -- -- 30
2019-02-13 08:00:00 6.4 9 Sudeste 13 Sudeste 0 -- -- 26
2019-02-13 07:00:00 6.6 8 Sudeste 10 Sudeste 0 -- -- 27
2019-02-13 06:00:00 7.7 9 Sur 14 Sur 0 -- -- 23
2019-02-13 05:00:00 7.8 12 Sudeste 17 Sudeste 0 -- -- 26
2019-02-13 04:00:00 7.8 10 Sudeste 17 Sudeste 0 -- -- 26
2019-02-13 03:00:00 7.1 8 Sudeste 13 Sudeste 0 -- -- 28
2019-02-13 02:00:00 6.2 5 Sudoeste 16 Sudeste 0 -- -- 41
2019-02-13 01:00:00 7.5 7 Sudeste 14 Sur 0 -- -- 29
2019-02-13 00:00:00 7.4 6 Sur 13 Sur 0 -- -- 38
2019-02-12 23:00:00 7.8 8 Sur 14 Sudoeste 0 -- -- 45
2019-02-12 22:00:00 7.7 7 Sur 13 Sudoeste 0 -- -- 54
2019-02-12 21:00:00 7.8 10 Sudoeste 15 Oeste 0 -- -- 62
2019-02-12 20:00:00 6.8 13 Sudoeste 15 Oeste 0 -- -- 74
2019-02-12 19:00:00 8.3 7 Sudoeste 12 Oeste 0 -- -- 67
2019-02-12 18:00:00 11 7 Oeste 13 Oeste 0 -- -- 60
2019-02-12 17:00:00 12.1 5 Oeste 9 Sudoeste 0 -- -- 58
2019-02-12 16:00:00 11.8 3 Este 9 Este 0 -- -- 48
2019-02-12 15:00:00 11.3 3 Este 9 Este 0 -- -- 36
2019-02-12 14:00:00 11 4 Este 10 Este 0 -- -- 43
2019-02-12 13:00:00 10.2 2 Este 12 Este 0 -- -- 39
2019-02-12 12:00:00 9.6 5 Este 15 Este 0 -- -- 36
2019-02-12 11:00:00 7.9 7 Este 16 Este 0 -- -- 47
2019-02-12 10:00:00 5.7 8 Este 17 Sudeste 0 -- -- 60
2019-02-12 09:00:00 2.6 5 Este 12 Este 0 -- -- 71
2019-02-12 08:00:00 2.9 3 Este 12 Sudeste 0 -- -- 70
2019-02-12 07:00:00 2.9 4 Sudeste 9 Sudeste 0 -- -- 70
2019-02-12 06:00:00 3.3 2 Sudeste 4 Oeste 0 -- -- 72
2019-02-12 05:00:00 3.3 4 Oeste 5 Noroeste 0 -- -- 71
2019-02-12 04:00:00 3.3 4 Sur 7 Oeste 0 -- -- 75
2019-02-12 03:00:00 3.6 5 Oeste 10 Sudoeste 0 -- -- 76
2019-02-12 02:00:00 4.1 9 Oeste 11 Oeste 0 -- -- 75
2019-02-12 01:00:00 5.8 9 Sur 14 Sur 0 -- -- 64
2019-02-12 00:00:00 4.2 7 Sudeste 13 Sudeste 0 -- -- 82
2019-02-11 23:00:00 3.2 6 Sudeste 12 Este 0 -- -- 90
2019-02-11 22:00:00 2.7 5 Este 13 Este 0 -- -- 93
2019-02-11 21:00:00 3.1 9 Este 18 Este 0 -- -- 92
2019-02-11 20:00:00 3.6 7 Este 24 Este 0 -- -- 89
2019-02-11 19:00:00 4.8 7 Este 14 Este 0 -- -- 83
2019-02-11 18:00:00 7.2 5 Noroeste 11 Noroeste 0 -- -- 67
2019-02-11 17:00:00 7.4 5 Noroeste 11 Noroeste 0 -- -- 62
2019-02-11 16:00:00 6.8 4 Nordeste 11 Norte 0 -- -- 69
2019-02-11 15:00:00 6.3 3 Este 13 Este 0 -- -- 66
2019-02-11 14:00:00 5.1 6 Este 14 Este 0 -- -- 78
2019-02-11 13:00:00 4.2 9 Este 18 Este 0 -- -- 79
2019-02-11 12:00:00 3.9 6 Este 15 Este 0 -- -- 80
2019-02-11 11:00:00 2.5 6 Este 16 Este 0.2 -- -- 91
2019-02-11 10:00:00 1.1 8 Este 15 Este 0 -- -- 100
2019-02-11 09:00:00 -0.4 6 Este 14 Este 0 -- -- 100
2019-02-11 08:00:00 -0.6 6 Este 14 Este 0 -- -- 100
2019-02-11 07:00:00 -0.5 5 Este 11 Este 0 -- -- 99
2019-02-11 06:00:00 -0.5 5 Nordeste 12 Nordeste 0 -- -- 99
2019-02-11 05:00:00 -0.3 4 Nordeste 12 Noroeste 0 -- -- 97
2019-02-11 04:00:00 -0.2 4 Noroeste 9 Norte 0 -- -- 96
2019-02-11 03:00:00 0 4 Noroeste 15 Noroeste 0 -- -- 93
2019-02-11 02:00:00 0.1 11 Noroeste 18 Noroeste 0 -- -- 93
2019-02-11 01:00:00 0.1 9 Oeste 15 Oeste 0 -- -- 95
2019-02-11 00:00:00 0.3 5 Oeste 10 Oeste 0 -- -- 98
2019-02-10 23:00:00 0.9 5 Noroeste 14 Oeste 0 -- -- 98
2019-02-10 22:00:00 1.1 5 Oeste 17 Noroeste 0 -- -- 98
2019-02-10 21:00:00 1.4 9 Oeste 18 Noroeste 0 -- -- 97
2019-02-10 20:00:00 2 9 Oeste 19 Oeste 0 -- -- 96
2019-02-10 19:00:00 2.6 12 Oeste 22 Noroeste 0 -- -- 96
2019-02-10 18:00:00 3.2 9 Noroeste 17 Noroeste 0 -- -- 98
2019-02-10 17:00:00 3.5 10 Oeste 21 Oeste 0 -- -- 99
2019-02-10 16:00:00 3.8 9 Oeste 21 Oeste 0 -- -- 100
2019-02-10 15:00:00 3.7 10 Oeste 24 Noroeste 0 -- -- 100
2019-02-10 14:00:00 3.7 11 Oeste 24 Oeste 0 -- -- 100
2019-02-10 13:00:00 3.9 10 Oeste 22 Oeste 0 -- -- 100
2019-02-10 12:00:00 3.4 13 Oeste 34 Oeste 0 -- -- 100
2019-02-10 11:00:00 3 20 Oeste 37 Noroeste 0.2 -- -- 100
2019-02-10 10:00:00 3.6 16 Oeste 32 Noroeste 2.6 -- -- 100
2019-02-10 09:00:00 5 19 Oeste 53 Oeste 5.2 -- -- 100
2019-02-10 08:00:00 6.5 19 Sudoeste 69 Sudoeste 1.2 -- -- 100
2019-02-10 07:00:00 6.1 22 Sudoeste 68 Sudoeste 0.8 -- -- 100
2019-02-10 06:00:00 6.2 23 Sudoeste 63 Sudoeste 1.2 -- -- 100
2019-02-10 05:00:00 6.1 20 Sudoeste 71 Sudoeste 0.6 -- -- 100
2019-02-10 04:00:00 5.9 23 Sur 54 Sudoeste 0.6 -- -- 100
2019-02-10 03:00:00 5.8 21 Sur 58 Sudoeste 0.6 -- -- 100
2019-02-10 02:00:00 5.6 21 Sur 54 Sudoeste 0.6 -- -- 100
2019-02-10 01:00:00 5.3 21 Sur 55 Sudoeste 0.4 -- -- 100
2019-02-10 00:00:00 5.1 26 Sur 55 Sur 0.4 -- -- 99
2019-02-09 23:00:00 4.8 21 Sur 49 Sur 0 -- -- 98
2019-02-09 22:00:00 5.2 15 Sur 47 Sur 0 -- -- 92
2019-02-09 21:00:00 5.4 18 Sur 55 Sur 0 -- -- 88
2019-02-09 20:00:00 5.2 23 Sur 48 Sur 0 -- -- 89
2019-02-09 19:00:00 5.4 17 Sur 40 Sudoeste 0 -- -- 86
2019-02-09 18:00:00 5.5 19 Sur 43 Sur 0 -- -- 85
2019-02-09 17:00:00 5.6 16 Sudoeste 39 Sudoeste 0 -- -- 89
2019-02-09 16:00:00 6.1 12 Sur 33 Sudoeste 0 -- -- 87
2019-02-09 15:00:00 7 13 Sur 32 Sudoeste 0 -- -- 84
2019-02-09 14:00:00 6.2 11 Sudoeste 38 Sudoeste 0 -- -- 89
2019-02-09 13:00:00 7.1 19 Sur 48 Sur 0 -- -- 85
2019-02-09 12:00:00 6.6 17 Sur 41 Sudoeste 0 -- -- 87
2019-02-09 11:00:00 6 10 Sur 34 Sur 0 -- -- 88
2019-02-09 10:00:00 5 9 Sur 36 Sur 0 -- -- 92
2019-02-09 09:00:00 4.4 10 Sur 28 Sudeste 0 -- -- 94
2019-02-09 08:00:00 4.4 9 Sur 26 Sudoeste 0 -- -- 95
2019-02-09 07:00:00 4.4 10 Sudoeste 28 Sudoeste 0 -- -- 96
2019-02-09 06:00:00 4.5 10 Sudoeste 32 Oeste 0 -- -- 96
2019-02-09 05:00:00 4.4 8 Sudoeste 28 Sudoeste 0 -- -- 96
2019-02-09 04:00:00 4.7 12 Sur 35 Sur 0 -- -- 94
2019-02-09 03:00:00 4.7 11 Sur 33 Sur 0 -- -- 97
2019-02-09 02:00:00 4.6 11 Sur 32 Sudoeste 0 -- -- 98
2019-02-09 01:00:00 4.4 12 Sur 34 Sudoeste 0 -- -- 100
2019-02-09 00:00:00 4.4 13 Sur 29 Sur 0 -- -- 100
2019-02-08 23:00:00 4.5 11 Sur 40 Oeste 0 -- -- 100
2019-02-08 22:00:00 4.5 13 Sudoeste 37 Sudoeste 0 -- -- 100
2019-02-08 21:00:00 4.6 10 Sudoeste 42 Sur 0 -- -- 100
2019-02-08 20:00:00 4.8 15 Sudoeste 43 Sudoeste 0 -- -- 100
2019-02-08 19:00:00 5 14 Sudoeste 39 Sudoeste 0 -- -- 99
2019-02-08 18:00:00 5.2 16 Sudoeste 42 Sudoeste 0 -- -- 97
2019-02-08 17:00:00 5.4 12 Sur 35 Sudoeste 0 -- -- 94
2019-02-08 16:00:00 5.5 14 Sur 44 Sur 0 -- -- 92
2019-02-08 15:00:00 6.2 11 Sudoeste 29 Sudoeste 0 -- -- 85
2019-02-08 14:00:00 6.1 10 Sur 28 Sur 0 -- -- 86
2019-02-08 13:00:00 4.8 14 Sur 37 Sudoeste 0 -- -- 87
2019-02-08 12:00:00 3.6 13 Sudoeste 43 Sudoeste 0 -- -- 92
2019-02-08 11:00:00 2.5 15 Sudoeste 42 Oeste 0 -- -- 95
2019-02-08 10:00:00 2 14 Sur 33 Sur 0 -- -- 98
2019-02-08 09:00:00 1.3 12 Sudoeste 36 Sudoeste 0 -- -- 100
2019-02-08 08:00:00 1.5 11 Sudoeste 37 Sudoeste 0 -- -- 100
2019-02-08 07:00:00 1.5 18 Sudoeste 40 Oeste 0 -- -- 100
2019-02-08 06:00:00 1.5 21 Sudoeste 33 Sudoeste 0 -- -- 97
2019-02-08 05:00:00 2.1 9 Sudoeste 19 Sudoeste 0 -- -- 90
2019-02-08 04:00:00 2.5 2 Sur 12 Sur 0 -- -- 83
2019-02-08 03:00:00 2.5 9 Sudoeste 18 Sudoeste 0 -- -- 94
2019-02-08 02:00:00 2.8 12 Sudoeste 26 Sudoeste 0 -- -- 91
2019-02-08 01:00:00 2.6 9 Sudoeste 27 Oeste 0 -- -- 98
2019-02-08 00:00:00 2.7 9 Sur 26 Sudoeste 0 -- -- 97
2019-02-07 23:00:00 2.9 6 Sur 18 Sudoeste 0 -- -- 99
2019-02-07 22:00:00 2.6 2 Sur 8 Oeste 0 -- -- 98
2019-02-07 21:00:00 3.2 3 Oeste 17 Oeste 0 -- -- 92
2019-02-07 20:00:00 4.2 5 Sur 19 Sudoeste 0 -- -- 89
2019-02-07 19:00:00 4.7 6 Sudoeste 26 Sudoeste 0 -- -- 87
2019-02-07 18:00:00 6.1 5 Sur 19 Sudoeste 0 -- -- 81
2019-02-07 17:00:00 6.6 7 Sudoeste 19 Oeste 0 -- -- 80
2019-02-07 16:00:00 5.8 5 Sudoeste 16 Sudoeste 0 -- -- 86
2019-02-07 15:00:00 5.5 7 Sudoeste 15 Oeste 0 -- -- 95
2019-02-07 14:00:00 5.2 5 Sudoeste 17 Sur 0 -- -- 100
2019-02-07 13:00:00 4.1 5 Sur 16 Oeste 0 -- -- 100
2019-02-07 12:00:00 3.5 5 Oeste 19 Oeste 0 -- -- 100
2019-02-07 11:00:00 3.5 6 Sudoeste 23 Noroeste 0 -- -- 100
2019-02-07 10:00:00 3.4 9 Oeste 23 Sudoeste 0.2 -- -- 100
2019-02-07 09:00:00 3.3 7 Sudoeste 22 Oeste 0.8 -- -- 100
2019-02-07 08:00:00 3.2 4 Sur 14 Sudoeste 0.4 -- -- 100
2019-02-07 07:00:00 3.2 5 Sur 18 Oeste 0 -- -- 100
2019-02-07 06:00:00 3.2 6 Oeste 20 Sur 0 -- -- 100
2019-02-07 05:00:00 3.2 9 Sudoeste 29 Oeste 0.8 -- -- 100
2019-02-07 04:00:00 4.1 8 Sudoeste 26 Sur 0 -- -- 100
2019-02-07 03:00:00 4.4 11 Sudoeste 27 Sudoeste 0.2 -- -- 99
2019-02-07 02:00:00 4.8 10 Sudoeste 30 Sur 0 -- -- 96
2019-02-07 01:00:00 4.6 6 Sur 29 Sudoeste 0 -- -- 94
2019-02-07 00:00:00 4.6 7 Sudoeste 24 Oeste 0 -- -- 91
2019-02-06 23:00:00 4.4 6 Sur 21 Sur 0 -- -- 91
2019-02-06 22:00:00 4.5 6 Sudoeste 24 Oeste 0 -- -- 84
2019-02-06 21:00:00 5 9 Sudoeste 29 Sudoeste 0 -- -- 71
2019-02-06 20:00:00 5.1 12 Sudoeste 31 Sudoeste 0 -- -- 77
2019-02-06 19:00:00 5.6 9 Sur 22 Sudoeste 0 -- -- 71
2019-02-06 18:00:00 6.4 10 Sur 24 Sudoeste 0 -- -- 72
2019-02-06 17:00:00 7.6 8 Sudoeste 22 Sudoeste 0 -- -- 71
2019-02-06 16:00:00 8.1 10 Sudoeste 28 Sudoeste 0 -- -- 66
2019-02-06 15:00:00 8.8 11 Sudoeste 30 Sur 0 -- -- 63
2019-02-06 14:00:00 9.9 10 Sudoeste 28 Sudoeste 0 -- -- 50
2019-02-06 13:00:00 10 9 Sudoeste 27 Sur 0 -- -- 48
2019-02-06 12:00:00 8.7 12 Sur 31 Sur 0 -- -- 68
2019-02-06 11:00:00 8.1 12 Sur 32 Sur 0 -- -- 72
2019-02-06 10:00:00 7.1 15 Sur 28 Sur 0 -- -- 74
2019-02-06 09:00:00 6.7 13 Sur 26 Sur 0 -- -- 78
2019-02-06 08:00:00 6.6 11 Sur 22 Sudoeste 0 -- -- 80
2019-02-06 07:00:00 6.5 9 Sur 23 Sur 0 -- -- 82
2019-02-06 06:00:00 6.3 12 Sur 21 Sur 0 -- -- 86
2019-02-06 05:00:00 5.8 10 Sudeste 19 Sudeste 0 -- -- 92
2019-02-06 04:00:00 5.9 10 Sur 18 Sur 0 -- -- 93
2019-02-06 03:00:00 5.5 9 Sudoeste 14 Sudoeste 0 -- -- 99
2019-02-06 02:00:00 5.6 10 Oeste 15 Oeste 0 -- -- 98
2019-02-06 01:00:00 5.4 9 Sudoeste 17 Sudoeste 0 -- -- 100
2019-02-06 00:00:00 4.7 14 Oeste 18 Oeste 0 -- -- 99
2019-02-05 23:00:00 5.9 10 Sudoeste 14 Sudoeste 0 -- -- 95
2019-02-05 22:00:00 6.3 9 Sudoeste 16 Sudoeste 0 -- -- 93
2019-02-05 21:00:00 6.3 7 Sudoeste 18 Sudoeste 0 -- -- 92
2019-02-05 20:00:00 6.3 8 Sudoeste 16 Sudoeste 0 -- -- 90
2019-02-05 19:00:00 6.9 4 Sudoeste 13 Oeste 0 -- -- 87
2019-02-05 18:00:00 8.8 4 Oeste 14 Sudoeste 0 -- -- 82
2019-02-05 17:00:00 9.5 4 Sudoeste 16 Sudoeste 0 -- -- 81
2019-02-05 16:00:00 8.6 4 Sudoeste 15 Oeste 0 -- -- 83
2019-02-05 15:00:00 8.2 5 Sudoeste 18 Sudoeste 0 -- -- 84
2019-02-05 14:00:00 7.4 10 Sudoeste 18 Oeste 0 -- -- 86
2019-02-05 13:00:00 6.5 7 Oeste 15 Oeste 0 -- -- 93
2019-02-05 12:00:00 5.4 6 Sudoeste 16 Sudoeste 0 -- -- 99
2019-02-05 11:00:00 4.8 6 Sudoeste 14 Sudoeste 0 -- -- 100
2019-02-05 10:00:00 4.1 5 Sur 12 Sudoeste 0 -- -- 100
2019-02-05 09:00:00 3.5 4 Sudoeste 13 Sudoeste 0 -- -- 100
2019-02-05 08:00:00 3.6 4 Sudoeste 13 Sudoeste 0 -- -- 100
2019-02-05 07:00:00 3.7 2 Sudoeste 12 Sur 0 -- -- 100
2019-02-05 06:00:00 3.6 5 Sur 13 Sur 0 -- -- 100
2019-02-05 05:00:00 3.7 3 Sur 9 Sudoeste 0 -- -- 100
2019-02-05 04:00:00 3.8 3 Sur 10 Oeste 0.2 -- -- 100
2019-02-05 03:00:00 3.7 3 Nordeste 12 Este 0 -- -- 100
2019-02-05 02:00:00 3.7 2 Noroeste 12 Sur 0 -- -- 100
2019-02-05 01:00:00 3.8 3 Sudeste 10 Sur 0 -- -- 100
2019-02-05 00:00:00 3.8 4 Sur 15 Sudoeste 0 -- -- 100
2019-02-04 23:00:00 3.5 8 Sudoeste 18 Sudoeste 0 -- -- 100
2019-02-04 22:00:00 3.9 5 Sur 26 Sudoeste 0 -- -- 100
2019-02-04 21:00:00 3.8 12 Sudoeste 32 Oeste 0 -- -- 100
2019-02-04 20:00:00 3.9 15 Sudoeste 35 Sudoeste 0 -- -- 97
2019-02-04 19:00:00 4.1 22 Sudoeste 33 Oeste 0 -- -- 97
2019-02-04 18:00:00 4.1 8 Oeste 20 Sudoeste 0 -- -- 95
2019-02-04 17:00:00 4.2 6 Sur 27 Oeste 0 -- -- 96
2019-02-04 16:00:00 3.9 14 Sudoeste 32 Sudoeste 0 -- -- 93
2019-02-04 15:00:00 3.5 16 Sudoeste 32 Sudoeste 0 -- -- 71
2019-02-04 14:00:00 3.5 7 Sudoeste 25 Sudoeste 0.6 -- -- 71
2019-02-04 13:00:00 3.9 19 Sudoeste 31 Sudoeste 2.6 -- -- 72
2019-02-04 12:00:00 4.3 10 Sudoeste 25 Sudoeste 2.4 -- -- 73
2019-02-04 11:00:00 3.9 11 Sudoeste 23 Sudoeste 0.8 -- -- 82
2019-02-04 10:00:00 3 12 Sudoeste 27 Sudoeste 0.2 -- -- 60
2019-02-04 09:00:00 1.4 6 Sudoeste 19 Sudoeste 0 -- -- 50
2019-02-04 08:00:00 1.7 7 Sudoeste 20 Sudoeste 0 -- -- 49
2019-02-04 07:00:00 1.5 9 Sudoeste 18 Sudoeste 0 -- -- 46
2019-02-04 06:00:00 1.5 8 Sudoeste 22 Sudoeste 0 -- -- 50
2019-02-04 05:00:00 1.1 8 Sudoeste 24 Sudoeste 0 -- -- 54
2019-02-04 04:00:00 0.7 7 Sudoeste 28 Sudoeste 0.2 -- -- 65
2019-02-04 03:00:00 1.2 14 Sudoeste 27 Sudoeste 0 -- -- 53
2019-02-04 02:00:00 1 6 Sudoeste 23 Sudoeste 0 -- -- 58
2019-02-04 01:00:00 0.4 5 Sur 14 Sudoeste 0.2 -- -- 74
2019-02-04 00:00:00 0.5 4 Sudeste 17 Sudoeste 0 -- -- 78
2019-02-03 23:00:00 0.3 9 Sur 17 Sur 0.2 -- -- 74
2019-02-03 22:00:00 0 8 Sudeste 20 Sudoeste 0 -- -- 93
2019-02-03 21:00:00 0 11 Sur 19 Sur 0 -- -- 96
2019-02-03 20:00:00 -0.2 8 Sudoeste 17 Sudoeste 0.2 -- -- 100
2019-02-03 19:00:00 -0.1 12 Sudoeste 16 Sudoeste 0.2 -- -- 100
2019-02-03 18:00:00 0.6 12 Sudoeste 18 Oeste 1 -- -- 100
2019-02-03 17:00:00 0.8 6 Sudoeste 10 Sudoeste 2.2 -- -- 100
2019-02-03 16:00:00 0.6 0 Calma 12 Oeste 1.6 -- -- 100
2019-02-03 15:00:00 0.1 0 Calma 10 Oeste 3.4 -- -- 100
2019-02-03 14:00:00 -0.1 5 Sudoeste 10 Este 5.8 -- -- 100
2019-02-03 13:00:00 -0.1 5 Este 13 Este 5 -- -- 100
2019-02-03 12:00:00 -0.5 5 Este 10 Este 3.2 -- -- 100
2019-02-03 11:00:00 -1.2 5 Este 10 Este 0 -- -- 100
2019-02-03 10:00:00 -1.8 4 Este 9 Nordeste 0 -- -- 100
2019-02-03 09:00:00 -2.5 4 Este 10 Nordeste 0 -- -- 100
2019-02-03 08:00:00 -2.4 5 Este 10 Nordeste 0 -- -- 100
2019-02-03 07:00:00 -2.3 5 Este 10 Este 0 -- -- 100
2019-02-03 06:00:00 -2.3 6 Este 12 Norte 0 -- -- 100
2019-02-03 05:00:00 -2.4 6 Nordeste 13 Nordeste 0 -- -- 100
2019-02-03 04:00:00 -2.2 5 Este 14 Nordeste 0 -- -- 100
2019-02-03 03:00:00 -2.2 8 Este 17 Norte 0 -- -- 100
2019-02-03 02:00:00 -2 6 Nordeste 16 Nordeste 0 -- -- 100
2019-02-03 01:00:00 -1.8 8 Nordeste 19 Nordeste 0.2 -- -- 100
2019-02-03 00:00:00 -1.8 8 Nordeste 19 Nordeste 0 -- -- 100
2019-02-02 23:00:00 -1.5 5 Nordeste 13 Noroeste 0 -- -- 100
2019-02-02 22:00:00 -1.5 6 Noroeste 15 Norte 0 -- -- 100
2019-02-02 21:00:00 -1.3 9 Oeste 26 Noroeste 0 -- -- 100
2019-02-02 20:00:00 -1.1 15 Oeste 27 Noroeste 0 -- -- 100
2019-02-02 19:00:00 -1.3 13 Oeste 23 Oeste 0 -- -- 100
2019-02-02 18:00:00 -0.8 15 Oeste 29 Oeste 0.2 -- -- 100
2019-02-02 17:00:00 -0.8 14 Oeste 21 Oeste 0.6 -- -- 100
2019-02-02 16:00:00 -1 10 Oeste 18 Noroeste 0.8 -- -- 100
2019-02-02 15:00:00 -0.8 8 Noroeste 19 Oeste 0.2 -- -- 100
2019-02-02 14:00:00 -1 9 Oeste 15 Oeste 0.4 -- -- 100
2019-02-02 13:00:00 -1.2 10 Oeste 18 Oeste 0.2 -- -- 100
2019-02-02 12:00:00 -1.5 9 Noroeste 22 Noroeste 0 -- -- 100
2019-02-02 11:00:00 -1.9 14 Oeste 22 Noroeste 0 -- -- 100
2019-02-02 10:00:00 -2.1 12 Noroeste 33 Noroeste 0 -- -- 100
2019-02-02 09:00:00 -2.6 12 Noroeste 31 Noroeste 0 -- -- 100
2019-02-02 08:00:00 -2.4 14 Noroeste 26 Oeste 0 -- -- 100
2019-02-02 07:00:00 -2.4 11 Noroeste 21 Oeste 0 -- -- 100
2019-02-02 06:00:00 -2.4 11 Noroeste 22 Noroeste 0 -- -- 100
2019-02-02 05:00:00 -2.1 9 Noroeste 18 Noroeste 0 -- -- 100
2019-02-02 04:00:00 -2.1 8 Noroeste 21 Oeste 0 -- -- 100
2019-02-02 03:00:00 -2.1 13 Oeste 26 Oeste 0 -- -- 100
2019-02-02 02:00:00 -2 16 Oeste 34 Noroeste 0 -- -- 100
2019-02-02 01:00:00 -1.8 17 Noroeste 39 Oeste 0 -- -- 100
2019-02-02 00:00:00 -1.6 21 Oeste 37 Oeste 0 -- -- 100
2019-02-01 23:00:00 -1.5 23 Oeste 44 Noroeste 0 -- -- 100
2019-02-01 22:00:00 -1.1 24 Oeste 43 Oeste 0 -- -- 100
2019-02-01 21:00:00 -0.5 23 Oeste 46 Oeste 0 -- -- 100
2019-02-01 20:00:00 -0.2 21 Oeste 49 Oeste 0 -- -- 100
2019-02-01 19:00:00 0 28 Oeste 57 Oeste 0 -- -- 100
2019-02-01 18:00:00 -0.2 24 Oeste 43 Oeste 0 -- -- 100
2019-02-01 17:00:00 -0.9 18 Oeste 40 Sudoeste 0 -- -- 100
2019-02-01 16:00:00 -1.4 17 Oeste 40 Oeste 0 -- -- 100
2019-02-01 15:00:00 -1.1 10 Sudoeste 38 Noroeste 0 -- -- 100
2019-02-01 14:00:00 -1.2 10 Sudoeste 37 Oeste 0 -- -- 100
2019-02-01 13:00:00 -1.7 14 Oeste 36 Sudoeste 0 -- -- 100
2019-02-01 12:00:00 -1.7 12 Sur 50 Sur 0 -- -- 100
2019-02-01 11:00:00 -0.8 12 Sudoeste 33 Sudoeste 0 -- -- 100
2019-02-01 10:00:00 -1.1 14 Sudoeste 47 Sudoeste 0 -- -- 100
2019-02-01 09:00:00 -0.4 12 Sudoeste 41 Sudoeste 0.2 -- -- 100
2019-02-01 08:00:00 -0.4 11 Sudoeste 31 Sur 0 -- -- 100
2019-02-01 07:00:00 -0.5 8 Sudoeste 35 Sudoeste 0 -- -- 100
2019-02-01 06:00:00 -0.3 11 Sur 49 Oeste 0 -- -- 100
2019-02-01 05:00:00 -0.2 15 Sur 49 Sudoeste 0 -- -- 100
2019-02-01 04:00:00 0.2 20 Sudoeste 58 Sur 0 -- -- 100
2019-02-01 03:00:00 0 14 Sudoeste 48 Sur 0.4 -- -- 100
2019-02-01 02:00:00 1 10 Sudeste 39 Sur 1 -- -- 100
2019-02-01 01:00:00 1.1 14 Sudoeste 46 Sudoeste 1 -- -- 100
2019-02-01 00:00:00 1.5 12 Sur 49 Sudoeste 0.2 -- -- 100
2019-01-31 23:00:00 1.7 18 Sudoeste 44 Sudoeste 1.2 -- -- 100
2019-01-31 22:00:00 2.7 18 Sudoeste 44 Sudoeste 0 -- -- 100
2019-01-31 21:00:00 2.9 15 Oeste 45 Sudoeste 0.2 -- -- 100
2019-01-31 20:00:00 3.5 10 Sur 38 Sudoeste 0 -- -- 100
2019-01-31 19:00:00 4.1 14 Oeste 45 Oeste 0 -- -- 100
2019-01-31 18:00:00 4.5 19 Oeste 55 Oeste 0.2 -- -- 100
2019-01-31 17:00:00 5.9 22 Oeste 62 Oeste 1.6 -- -- 100
2019-01-31 16:00:00 7 26 Oeste 67 Oeste 7.4 -- -- 100
2019-01-31 15:00:00 7.8 18 Sur 48 Sudoeste 3.6 -- -- 100
2019-01-31 14:00:00 7.8 19 Sudoeste 59 Oeste 1.6 -- -- 100
2019-01-31 13:00:00 7.8 18 Sudoeste 44 Sur 1.6 -- -- 100
2019-01-31 12:00:00 7.7 14 Sur 45 Sudoeste 3.4 -- -- 100
2019-01-31 11:00:00 7.7 15 Sur 48 Sudoeste 2.8 -- -- 100
2019-01-31 10:00:00 7.5 14 Sur 42 Sudoeste 2 -- -- 100
2019-01-31 09:00:00 7.5 15 Sur 48 Sur 1.2 -- -- 100
2019-01-31 08:00:00 7.4 13 Sur 44 Sudoeste 2.2 -- -- 100
2019-01-31 07:00:00 7.4 13 Sur 47 Sudeste 3 -- -- 100
2019-01-31 06:00:00 7.2 15 Sur 45 Oeste 2.8 -- -- 100
2019-01-31 05:00:00 7.1 14 Sur 44 Oeste 5.4 -- -- 100
2019-01-31 04:00:00 7.2 13 Sur 45 Oeste 7 -- -- 100
2019-01-31 03:00:00 7.3 13 Sur 39 Sur 5.6 -- -- 100
2019-01-31 02:00:00 7.3 15 Sudoeste 45 Oeste 3.4 -- -- 100
2019-01-31 01:00:00 7.3 13 Sur 47 Sudoeste 4 -- -- 100
2019-01-31 00:00:00 7.3 13 Sudoeste 39 Sudoeste 4.2 -- -- 100
2019-01-30 23:00:00 7.1 13 Sudoeste 48 Sudoeste 3.6 -- -- 100
2019-01-30 22:00:00 6.6 15 Sudoeste 46 Sudoeste 5.2 -- -- 100
2019-01-30 21:00:00 5.7 11 Sur 33 Sur 4.6 -- -- 100
2019-01-30 20:00:00 5.2 10 Sur 38 Sudoeste 0.6 -- -- 100
2019-01-30 19:00:00 5.3 18 Sur 62 Oeste 2.4 -- -- 100
2019-01-30 18:00:00 5.1 19 Sudoeste 45 Sudoeste 2.2 -- -- 100
2019-01-30 17:00:00 4.5 17 Sur 49 Sudoeste 1.4 -- -- 100
2019-01-30 16:00:00 3.9 13 Sudoeste 41 Sudoeste 1.6 -- -- 100
2019-01-30 15:00:00 3.6 12 Sudoeste 42 Sudoeste 1.2 -- -- 100
2019-01-30 14:00:00 3.2 12 Sudoeste 38 Sur 0.8 -- -- 100
2019-01-30 13:00:00 2.3 11 Sudoeste 37 Sudoeste 0.4 -- -- 100
2019-01-30 12:00:00 1.2 13 Sudoeste 30 Oeste 0.6 -- -- 100
2019-01-30 11:00:00 0.4 12 Sur 29 Sudoeste 0.2 -- -- 100
2019-01-30 10:00:00 0 11 Sudoeste 28 Sudoeste 0 -- -- 100
2019-01-30 09:00:00 -0.3 7 Sudoeste 23 Sudoeste 0 -- -- 100
2019-01-30 08:00:00 -0.3 5 Sur 21 Sudoeste 0 -- -- 100
2019-01-30 07:00:00 -0.2 7 Sudoeste 23 Oeste 0 -- -- 100
2019-01-30 06:00:00 -0.2 9 Oeste 22 Oeste 0 -- -- 100
2019-01-30 05:00:00 -0.3 9 Oeste 22 Sudoeste 0 -- -- 100
2019-01-30 04:00:00 -0.4 11 Oeste 25 Oeste 0 -- -- 100
2019-01-30 03:00:00 -0.4 10 Oeste 22 Oeste 0 -- -- 100
2019-01-30 02:00:00 -0.5 13 Oeste 27 Oeste 0 -- -- 100
2019-01-30 01:00:00 -0.2 8 Oeste 24 Oeste 0 -- -- 100
2019-01-30 00:00:00 -0.2 13 Oeste 28 Oeste 0 -- -- 100
2019-01-29 23:00:00 -0.2 16 Oeste 28 Oeste 0 -- -- 100
2019-01-29 22:00:00 0.3 13 Oeste 37 Noroeste 0 -- -- 100
2019-01-29 21:00:00 0.6 13 Oeste 32 Noroeste 0 -- -- 100
2019-01-29 20:00:00 0.9 16 Oeste 31 Noroeste 0.2 -- -- 100
2019-01-29 19:00:00 1.3 13 Oeste 34 Oeste 0.6 -- -- 100
2019-01-29 18:00:00 1.7 15 Oeste 33 Oeste 1 -- -- 100
2019-01-29 17:00:00 1.8 17 Oeste 45 Oeste 0.4 -- -- 100
2019-01-29 16:00:00 2.4 15 Oeste 51 Noroeste 1 -- -- 100
2019-01-29 15:00:00 3 22 Oeste 49 Noroeste 0.6 -- -- 100
2019-01-29 14:00:00 3.6 22 Oeste 59 Oeste 0.8 -- -- 100
2019-01-29 13:00:00 5 18 Oeste 50 Oeste 5 -- -- 100
2019-01-29 12:00:00 4.3 12 Sudeste 54 Sur 6.2 -- -- 100
2019-01-29 11:00:00 3.9 14 Sur 51 Sur 1.6 -- -- 100
2019-01-29 10:00:00 3.6 13 Sur 38 Sur 0.8 -- -- 100
2019-01-29 09:00:00 3.6 15 Sudoeste 39 Oeste 0.6 -- -- 100
2019-01-29 08:00:00 3.2 12 Sudoeste 42 Sudoeste 0.8 -- -- 100
2019-01-29 07:00:00 3.6 18 Sur 37 Sudoeste 0.6 -- -- 100
2019-01-29 06:00:00 3.1 11 Sur 33 Sudoeste 0.2 -- -- 100
2019-01-29 05:00:00 2.6 15 Sudoeste 39 Sudoeste 0.2 -- -- 100
2019-01-29 04:00:00 2.1 9 Sur 30 Oeste 1 -- -- 100
2019-01-29 03:00:00 2.2 10 Sudoeste 29 Sudoeste 0.2 -- -- 100
2019-01-29 02:00:00 2.2 6 Sudoeste 23 Oeste 0.2 -- -- 100
2019-01-29 01:00:00 2.1 6 Oeste 17 Oeste 0 -- -- 100
2019-01-29 00:00:00 2.1 7 Oeste 19 Oeste 0 -- -- 100
2019-01-28 23:00:00 2.1 11 Oeste 22 Oeste 0 -- -- 100
2019-01-28 22:00:00 2.1 12 Oeste 21 Oeste 0 -- -- 100
2019-01-28 21:00:00 2.3 14 Oeste 25 Oeste 0 -- -- 100
2019-01-28 20:00:00 2.4 12 Oeste 26 Oeste 0 -- -- 100
2019-01-28 19:00:00 2.6 15 Oeste 32 Oeste 0 -- -- 98
2019-01-28 18:00:00 3.2 17 Oeste 28 Oeste 0 -- -- 95
2019-01-28 17:00:00 3.8 11 Noroeste 33 Oeste 0 -- -- 98
2019-01-28 16:00:00 4.2 15 Noroeste 34 Noroeste 0.2 -- -- 100
2019-01-28 15:00:00 3.9 18 Oeste 35 Oeste 0 -- -- 100
2019-01-28 14:00:00 3.9 21 Noroeste 37 Oeste 0 -- -- 100
2019-01-28 13:00:00 4 12 Noroeste 29 Noroeste 0 -- -- 100
2019-01-28 12:00:00 3.9 13 Noroeste 30 Noroeste 1 -- -- 100
2019-01-28 11:00:00 3.9 14 Oeste 32 Oeste 0.8 -- -- 100
2019-01-28 10:00:00 3.8 15 Oeste 37 Oeste 1.8 -- -- 100
2019-01-28 09:00:00 3.7 16 Oeste 46 Sudoeste 2 -- -- 100
2019-01-28 08:00:00 3.6 12 Oeste 44 Sudoeste 0.6 -- -- 100
2019-01-28 07:00:00 3.2 14 Oeste 35 Oeste 1.2 -- -- 100
2019-01-28 06:00:00 2.9 11 Oeste 34 Oeste 1 -- -- 100
2019-01-28 05:00:00 2.7 12 Sudoeste 28 Sudoeste 1 -- -- 100
2019-01-28 04:00:00 2.4 12 Oeste 32 Sudoeste 1.4 -- -- 100
2019-01-28 03:00:00 2.1 15 Oeste 37 Oeste 1.4 -- -- 100
2019-01-28 02:00:00 2 17 Sudoeste 41 Sudoeste 1.2 -- -- 100
2019-01-28 01:00:00 1.8 15 Oeste 35 Sudoeste 0.6 -- -- 100
2019-01-28 00:00:00 1.5 10 Oeste 29 Sudoeste 0.6 -- -- 100
2019-01-27 23:00:00 1.4 11 Oeste 25 Oeste 0.2 -- -- 100
2019-01-27 22:00:00 1.3 12 Oeste 26 Oeste 0 -- -- 100
2019-01-27 21:00:00 1.3 13 Oeste 27 Oeste 0.2 -- -- 100
2019-01-27 20:00:00 1.3 13 Oeste 34 Oeste 0 -- -- 100
2019-01-27 19:00:00 1.4 12 Oeste 33 Oeste 0 -- -- 100
2019-01-27 18:00:00 1.8 14 Noroeste 36 Oeste 0 -- -- 100
2019-01-27 17:00:00 2.2 19 Oeste 33 Noroeste 0 -- -- 100
2019-01-27 16:00:00 2.2 17 Noroeste 38 Oeste 0.6 -- -- 100
2019-01-27 15:00:00 2.3 18 Oeste 30 Noroeste 0.2 -- -- 100
2019-01-27 14:00:00 1.3 20 Oeste 35 Oeste 0.8 -- -- 100
2019-01-27 13:00:00 2.1 18 Noroeste 34 Oeste 0 -- -- 100
2019-01-27 12:00:00 1.5 16 Oeste 31 Noroeste 0.2 -- -- 100
2019-01-27 11:00:00 1.2 17 Oeste 30 Noroeste 0.8 -- -- 100
2019-01-27 10:00:00 0.9 19 Oeste 37 Oeste 0.4 -- -- 100
2019-01-27 09:00:00 0.8 19 Oeste 35 Oeste 0.6 -- -- 100
2019-01-27 08:00:00 0.8 17 Oeste 42 Noroeste 0.2 -- -- 100
2019-01-27 07:00:00 0.8 20 Oeste 44 Oeste 0.4 -- -- 100
2019-01-27 06:00:00 0.8 23 Oeste 44 Oeste 1.2 -- -- 100
2019-01-27 05:00:00 1.4 19 Oeste 46 Oeste 2 -- -- 100
2019-01-27 04:00:00 1.9 18 Oeste 41 Oeste 0.2 -- -- 100
2019-01-27 03:00:00 2.6 18 Oeste 45 Oeste 1.6 -- -- 100
2019-01-27 02:00:00 3.4 18 Oeste 39 Oeste 0.8 -- -- 100
2019-01-27 01:00:00 3.4 9 Sudoeste 28 Sur 1.6 -- -- 100
2019-01-27 00:00:00 3.5 8 Sudoeste 31 Oeste 0 -- -- 100
2019-01-26 23:00:00 3.7 13 Oeste 33 Sudoeste 0 -- -- 100
2019-01-26 22:00:00 4 10 Oeste 30 Oeste 0 -- -- 98
2019-01-26 21:00:00 4.4 14 Oeste 26 Oeste 0 -- -- 89
2019-01-26 20:00:00 5.2 12 Sudoeste 21 Oeste 0 -- -- 88
2019-01-26 19:00:00 5.8 8 Oeste 18 Sudoeste 0 -- -- 82
2019-01-26 18:00:00 7.1 7 Oeste 22 Oeste 0 -- -- 74
2019-01-26 17:00:00 8.6 11 Oeste 28 Oeste 0 -- -- 70
2019-01-26 16:00:00 8.7 13 Oeste 24 Oeste 0 -- -- 65
2019-01-26 15:00:00 10.9 9 Oeste 21 Sudoeste 0 -- -- 55
2019-01-26 14:00:00 10.7 9 Sudoeste 20 Oeste 0 -- -- 51
2019-01-26 13:00:00 9.8 10 Sudoeste 22 Oeste 0 -- -- 54
2019-01-26 12:00:00 8.5 10 Sudoeste 22 Sudoeste 0 -- -- 57
2019-01-26 11:00:00 7.9 6 Sudoeste 13 Sudoeste 0 -- -- 62
2019-01-26 10:00:00 8.1 11 Sudoeste 16 Sudoeste 0 -- -- 55
2019-01-26 09:00:00 6.8 13 Sudoeste 17 Sudoeste 0 -- -- 58
2019-01-26 08:00:00 5.4 10 Sudoeste 14 Sudoeste 0 -- -- 65
2019-01-26 07:00:00 5.9 12 Sudoeste 14 Sudoeste 0 -- -- 61
2019-01-26 06:00:00 4.8 10 Sudoeste 14 Sudoeste 0 -- -- 72
2019-01-26 05:00:00 5 12 Sudoeste 16 Sudoeste 0 -- -- 80
2019-01-26 04:00:00 3.2 6 Sudoeste 12 Oeste 0 -- -- 99
2019-01-26 03:00:00 3.8 9 Oeste 14 Oeste 0 -- -- 100
2019-01-26 02:00:00 3.3 12 Sudoeste 13 Sudoeste 0 -- -- 100
2019-01-26 01:00:00 2.6 6 Sudeste 14 Sudeste 0 -- -- 100
2019-01-26 00:00:00 2.3 6 Este 12 Este 0 -- -- 100
2019-01-25 23:00:00 2.4 8 Este 18 Este 0 -- -- 100
2019-01-25 22:00:00 2.6 9 Este 18 Este 0 -- -- 100
2019-01-25 21:00:00 2.7 8 Este 21 Nordeste 0 -- -- 100
2019-01-25 20:00:00 3.1 8 Este 21 Este 0 -- -- 100
2019-01-25 19:00:00 3.4 10 Este 21 Nordeste 0 -- -- 100
2019-01-25 18:00:00 4.5 7 Nordeste 16 Nordeste 0 -- -- 100
2019-01-25 17:00:00 5.4 5 Norte 12 Norte 0 -- -- 100
2019-01-25 16:00:00 5.6 6 Nordeste 15 Este 0 -- -- 100
2019-01-25 15:00:00 5.5 6 Este 17 Nordeste 0 -- -- 100
2019-01-25 14:00:00 5.5 8 Nordeste 19 Nordeste 0 -- -- 100
2019-01-25 13:00:00 5.4 7 Nordeste 31 Nordeste 0 -- -- 100
2019-01-25 12:00:00 4.8 13 Nordeste 32 Nordeste 0 -- -- 100
2019-01-25 11:00:00 4 13 Nordeste 27 Norte 0 -- -- 100
2019-01-25 10:00:00 4.4 10 Este 30 Nordeste 0 -- -- 100
2019-01-25 09:00:00 3.4 13 Nordeste 27 Nordeste 0 -- -- 100
2019-01-25 08:00:00 3.3 10 Nordeste 30 Este 0 -- -- 100
2019-01-25 07:00:00 3.3 12 Nordeste 30 Nordeste 0 -- -- 100
2019-01-25 06:00:00 3.6 12 Nordeste 23 Nordeste 0 -- -- 100
2019-01-25 05:00:00 3.8 8 Este 18 Este 0 -- -- 100
2019-01-25 04:00:00 4.4 5 Nordeste 14 Nordeste 0.4 -- -- 100
2019-01-25 03:00:00 4.5 5 Nordeste 21 Nordeste 0.2 -- -- 100
2019-01-25 02:00:00 4.6 8 Nordeste 20 Nordeste 0 -- -- 100
2019-01-25 01:00:00 4.7 8 Nordeste 19 Nordeste 0 -- -- 100
2019-01-25 00:00:00 4.7 8 Nordeste 26 Nordeste 0 -- -- 100
2019-01-24 23:00:00 4.8 10 Nordeste 24 Nordeste 0.2 -- -- 100
2019-01-24 22:00:00 4.9 10 Nordeste 33 Nordeste 0 -- -- 100
2019-01-24 21:00:00 5.2 10 Nordeste 29 Nordeste 0 -- -- 100
2019-01-24 20:00:00 5.5 10 Nordeste 26 Nordeste 0 -- -- 100
2019-01-24 19:00:00 5.7 9 Nordeste 27 Norte 0 -- -- 100
2019-01-24 18:00:00 6 9 Norte 28 Norte 0.2 -- -- 100
2019-01-24 17:00:00 6.2 9 Nordeste 26 Norte 0 -- -- 100
2019-01-24 16:00:00 6.3 8 Norte 25 Norte 0 -- -- 100
2019-01-24 15:00:00 6.5 9 Norte 26 Nordeste 0.2 -- -- 100
2019-01-24 14:00:00 6.3 10 Norte 26 Noroeste 0.2 -- -- 100
2019-01-24 13:00:00 6.2 8 Norte 31 Norte 0.2 -- -- 100
2019-01-24 12:00:00 6 9 Norte 29 Norte 0.2 -- -- 100
2019-01-24 11:00:00 5.9 8 Norte 27 Norte 0 -- -- 100
2019-01-24 10:00:00 5.8 8 Norte 22 Norte 0.2 -- -- 100
2019-01-24 09:00:00 5.8 8 Norte 27 Norte 0.2 -- -- 100
2019-01-24 08:00:00 5.8 11 Noroeste 25 Norte 0.2 -- -- 100
2019-01-24 07:00:00 5.8 10 Noroeste 33 Norte 0.4 -- -- 100
2019-01-24 06:00:00 5.8 14 Noroeste 35 Noroeste 0.4 -- -- 100
2019-01-24 05:00:00 5.8 19 Noroeste 47 Noroeste 0.2 -- -- 100
2019-01-24 04:00:00 5.8 19 Noroeste 39 Noroeste 0 -- -- 100
2019-01-24 03:00:00 5.7 18 Oeste 38 Noroeste 0.4 -- -- 100
2019-01-24 02:00:00 5.7 18 Noroeste 35 Noroeste 0 -- -- 100
2019-01-24 01:00:00 5.5 19 Noroeste 39 Oeste 0.2 -- -- 100
2019-01-24 00:00:00 5.4 18 Noroeste 37 Noroeste 0 -- -- 100